San Juan Enterprise — WDD9563 — position and weather

sailwx.info

Track history (hours):
 
Tides and Currents Weather Stations Pressure Air Temp Water Temp Dewpoint Dewpoint Depression Visibility Wind Speed Wind Dir Waves Ship Positions

San Juan Enterprise

Owner: SAN JUAN MARINE FREIGHT CO LLC, ANACORTES, WA. More information available from US FCC via Universal Licensing System and Coast Guard Vessel Documentation Center.

Last reported at 2017-Apr-26 05:57 UTC. Time now 2017-Apr-26 06:09 UTC.
Position N 48°31' W 122°36'.

Length 30 m.

MMSI: 367313160.

Date/timePositionNaut miles runAvg speedWind from/ knotsBaromVisibWave heightAir tempDewpointWater temp
2017-Apr-26 05:57N 48°31' W 122°36'0 0.0
2017-Apr-26 05:27N 48°31' W 122°36'0 0.0
2017-Apr-26 04:51N 48°31' W 122°36'0 0.0
2017-Apr-26 04:27N 48°31' W 122°36'0 0.0
2017-Apr-26 03:57N 48°31' W 122°36'0 0.0
2017-Apr-26 03:21N 48°31' W 122°36'0 0.0
2017-Apr-26 02:57N 48°31' W 122°36'0 0.0
2017-Apr-26 02:29N 48°31' W 122°36'0 0.1
2017-Apr-26 02:00N 48°31' W 122°36'1 2.9
2017-Apr-26 01:30N 48°31' W 122°38'4 7.9
2017-Apr-26 01:00N 48°32' W 122°44'4 7.3
2017-Apr-26 00:30N 48°33' W 122°50'4 7.6
2017-Apr-26 00:00N 48°35' W 122°54'4 7.7
2017-Apr-25 23:30N 48°36' W 122°60'1 1.8
2017-Apr-25 23:00N 48°37' W 123°00'4 8.4
2017-Apr-25 22:30N 48°35' W 122°55'5 9.8
2017-Apr-25 22:00N 48°32' W 122°49'510.3
2017-Apr-25 21:30N 48°28' W 122°44'7 2.6
2017-Apr-25 19:01N 48°25' W 122°36'0 7.6
2017-Apr-25 18:58N 48°25' W 122°36'4 7.6
2017-Apr-25 18:30N 48°26' W 122°41'3 6.7
2017-Apr-25 18:01N 48°29' W 122°43'4 8.5
2017-Apr-25 17:30N 48°31' W 122°37'0 0.3
2017-Apr-25 17:01N 48°31' W 122°37'0 0.1
2017-Apr-25 16:30N 48°31' W 122°37'0 0.8
2017-Apr-25 16:00N 48°31' W 122°36'0 0.0
2017-Apr-25 15:30N 48°31' W 122°36'0 0.0
2017-Apr-25 15:00N 48°31' W 122°36'0 0.0
2017-Apr-25 13:54N 48°31' W 122°36'0 0.0
2017-Apr-25 13:24N 48°31' W 122°36'0 0.0
2017-Apr-25 13:00N 48°31' W 122°36'0 0.0
2017-Apr-25 12:30N 48°31' W 122°36'0 0.0
2017-Apr-25 12:00N 48°31' W 122°36'0 0.0
2017-Apr-25 11:30N 48°31' W 122°36'0 0.0
2017-Apr-25 10:54N 48°31' W 122°36'0 0.0
2017-Apr-25 10:12N 48°31' W 122°36'0 0.0
2017-Apr-25 09:54N 48°31' W 122°36'0 0.0
2017-Apr-25 09:30N 48°31' W 122°36'0 0.0
2017-Apr-25 09:00N 48°31' W 122°36'0 0.0
2017-Apr-25 08:30N 48°31' W 122°36'0 0.0
2017-Apr-25 08:00N 48°31' W 122°36'0 0.0
2017-Apr-25 07:30N 48°31' W 122°36'0 0.0
2017-Apr-25 07:00N 48°31' W 122°36'0 0.0
2017-Apr-25 06:24N 48°31' W 122°36'0 0.0
2017-Apr-25 06:00N 48°31' W 122°36'0 0.0
2017-Apr-25 05:24N 48°31' W 122°36'0 0.0
2017-Apr-25 05:00N 48°31' W 122°36'0 0.0
2017-Apr-25 04:30N 48°31' W 122°36'0 0.0
2017-Apr-25 03:54N 48°31' W 122°36'0 0.0
2017-Apr-25 03:30N 48°31' W 122°36'0 0.0
2017-Apr-25 03:00N 48°31' W 122°36'0 0.0
2017-Apr-25 02:30N 48°31' W 122°36'1 1.7
2017-Apr-25 02:00N 48°31' W 122°38'4 7.8
2017-Apr-25 01:30N 48°32' W 122°43'4 7.8
2017-Apr-25 01:01N 48°33' W 122°49'1 1.4
2017-Apr-25 00:31N 48°33' W 122°49'1 1.0
2017-Apr-25 00:01N 48°34' W 122°50'2 3.4
2017-Apr-24 23:31N 48°35' W 122°49'1 2.3
2017-Apr-24 23:01N 48°36' W 122°49'1 2.3
2017-Apr-24 22:31N 48°35' W 122°49'1 2.7
2017-Apr-24 22:00N 48°34' W 122°50'1 2.6
2017-Apr-24 21:30N 48°33' W 122°49'4 8.4
2017-Apr-24 21:00N 48°31' W 122°44'4 7.7
2017-Apr-24 20:31N 48°31' W 122°38'1 2.3
2017-Apr-24 20:00N 48°31' W 122°36'4 7.3
2017-Apr-24 19:30N 48°33' W 122°41'0 0.0
2017-Apr-24 19:00N 48°33' W 122°41'0 0.0
2017-Apr-24 18:30N 48°33' W 122°41'0 0.0
2017-Apr-24 18:00N 48°33' W 122°41'0 0.0
2017-Apr-24 17:30N 48°33' W 122°41'3 6.8
2017-Apr-24 17:00N 48°31' W 122°37'0 0.0
2017-Apr-24 16:30N 48°31' W 122°37'0 0.1
2017-Apr-24 16:01N 48°31' W 122°37'0 0.0
2017-Apr-24 15:30N 48°31' W 122°37'0 0.0
2017-Apr-24 15:01N 48°31' W 122°37'0 0.7
2017-Apr-24 14:30N 48°31' W 122°36'0 0.0
2017-Apr-24 13:29N 48°31' W 122°36'0 0.0
2017-Apr-24 12:59N 48°31' W 122°36'0 0.0
2017-Apr-24 12:29N 48°31' W 122°36'0 0.0
2017-Apr-24 11:53N 48°31' W 122°36'0 0.0
2017-Apr-24 11:23N 48°31' W 122°36'0 0.0
2017-Apr-24 10:59N 48°31' W 122°36'0 0.0
2017-Apr-24 10:29N 48°31' W 122°36'0 0.0
2017-Apr-24 09:35N 48°31' W 122°36'0 0.0
2017-Apr-24 09:29N 48°31' W 122°36'0 0.0
2017-Apr-24 08:59N 48°31' W 122°36'0 0.0
2017-Apr-24 08:29N 48°31' W 122°36'0 0.0
2017-Apr-24 07:59N 48°31' W 122°36'0 0.0
2017-Apr-24 07:29N 48°31' W 122°36'0 0.0
2017-Apr-24 06:59N 48°31' W 122°36'0 0.0
2017-Apr-24 06:29N 48°31' W 122°36'0 0.0
2017-Apr-24 05:47N 48°31' W 122°36'0 0.0
2017-Apr-24 05:23N 48°31' W 122°36'0 0.0
2017-Apr-24 04:59N 48°31' W 122°36'0 0.0
2017-Apr-24 04:29N 48°31' W 122°36'0 0.0
2017-Apr-24 03:53N 48°31' W 122°36'0 0.0
2017-Apr-24 03:29N 48°31' W 122°36'0 0.0
2017-Apr-24 02:53N 48°31' W 122°36'0 0.0
2017-Apr-24 02:23N 48°31' W 122°36'0 0.0
2017-Apr-24 01:59N 48°31' W 122°36'0 0.0
2017-Apr-24 01:29N 48°31' W 122°36'0 0.0
2017-Apr-24 00:59N 48°31' W 122°36'0 0.0
2017-Apr-24 00:29N 48°31' W 122°36'0 0.0
2017-Apr-23 23:59N 48°31' W 122°36'0 0.0
2017-Apr-23 23:29N 48°31' W 122°36'0 0.0
2017-Apr-23 22:53N 48°31' W 122°36'0 0.0
2017-Apr-23 22:29N 48°31' W 122°36'0 0.0
2017-Apr-23 21:59N 48°31' W 122°36'0 0.0
2017-Apr-23 21:23N 48°31' W 122°36'0 0.0
2017-Apr-23 20:59N 48°31' W 122°36'0 0.0
2017-Apr-23 20:29N 48°31' W 122°36'0 0.0
2017-Apr-23 19:59N 48°31' W 122°36'0 0.0
2017-Apr-23 19:29N 48°31' W 122°36'0 0.0
2017-Apr-23 18:59N 48°31' W 122°36'0 0.0
2017-Apr-23 18:29N 48°31' W 122°36'0 0.0
2017-Apr-23 17:53N 48°31' W 122°36'0 0.0
2017-Apr-23 17:23N 48°31' W 122°36'0 0.0
2017-Apr-23 16:59N 48°31' W 122°36'0 0.0
2017-Apr-23 16:29N 48°31' W 122°36'0 0.0
2017-Apr-23 15:59N 48°31' W 122°36'0 0.0
2017-Apr-23 15:29N 48°31' W 122°36'0 0.0
2017-Apr-23 14:59N 48°31' W 122°36'0 0.0
2017-Apr-23 14:29N 48°31' W 122°36'0 0.0
2017-Apr-23 13:29N 48°31' W 122°36'0 0.0
2017-Apr-23 12:59N 48°31' W 122°36'0 0.0
2017-Apr-23 12:29N 48°31' W 122°36'0 0.0
2017-Apr-23 11:59N 48°31' W 122°36'0 0.0
2017-Apr-23 11:23N 48°31' W 122°36'0 0.0
2017-Apr-23 10:59N 48°31' W 122°36'0 0.0
2017-Apr-23 10:05N 48°31' W 122°36'0 0.0
2017-Apr-23 09:53N 48°31' W 122°36'0 0.0
2017-Apr-23 09:29N 48°31' W 122°36'0 0.0
2017-Apr-23 08:59N 48°31' W 122°36'0 0.0
2017-Apr-23 08:23N 48°31' W 122°36'0 0.0
2017-Apr-23 07:59N 48°31' W 122°36'0 0.0
2017-Apr-23 07:29N 48°31' W 122°36'0 0.0
2017-Apr-23 06:59N 48°31' W 122°36'0 0.0
2017-Apr-23 06:29N 48°31' W 122°36'0 0.0
2017-Apr-23 05:47N 48°31' W 122°36'0 0.0
2017-Apr-23 05:29N 48°31' W 122°36'0 0.0
2017-Apr-23 04:53N 48°31' W 122°36'0 0.0
2017-Apr-23 04:29N 48°31' W 122°36'0 0.0
2017-Apr-23 03:59N 48°31' W 122°36'0 0.0
2017-Apr-23 03:29N 48°31' W 122°36'0 0.0
2017-Apr-23 02:59N 48°31' W 122°36'0 0.0
2017-Apr-23 02:23N 48°31' W 122°36'0 0.0
2017-Apr-23 01:59N 48°31' W 122°36'0 0.0
2017-Apr-23 01:23N 48°31' W 122°36'0 0.0
2017-Apr-23 00:59N 48°31' W 122°36'0 0.0
2017-Apr-23 00:29N 48°31' W 122°36'0 0.0
2017-Apr-22 23:59N 48°31' W 122°36'0 0.0
2017-Apr-22 23:29N 48°31' W 122°36'0 0.0
2017-Apr-22 22:59N 48°31' W 122°36'0 0.0
2017-Apr-22 22:29N 48°31' W 122°36'0 0.0
2017-Apr-22 21:59N 48°31' W 122°36'0 0.0
2017-Apr-22 21:29N 48°31' W 122°36'0 0.0
2017-Apr-22 20:59N 48°31' W 122°36'0 0.0
2017-Apr-22 20:29N 48°31' W 122°36'0 0.0
2017-Apr-22 19:59N 48°31' W 122°36'0 0.0
2017-Apr-22 19:29N 48°31' W 122°36'0 0.0
2017-Apr-22 18:59N 48°31' W 122°36'0 0.0
2017-Apr-22 18:29N 48°31' W 122°36'0 0.0
2017-Apr-22 17:59N 48°31' W 122°36'0 0.0
2017-Apr-22 17:29N 48°31' W 122°36'0 0.0
2017-Apr-22 16:59N 48°31' W 122°36'0 0.0
2017-Apr-22 16:29N 48°31' W 122°36'0 0.0
2017-Apr-22 15:59N 48°31' W 122°36'0 0.0
2017-Apr-22 15:29N 48°31' W 122°36'0 0.0
2017-Apr-22 14:53N 48°31' W 122°36'0 0.0
2017-Apr-22 14:29N 48°31' W 122°36'0 0.0
2017-Apr-22 13:29N 48°31' W 122°36'0 0.0
2017-Apr-22 12:59N 48°31' W 122°36'0 0.0
2017-Apr-22 12:29N 48°31' W 122°36'0 0.0
2017-Apr-22 11:59N 48°31' W 122°36'0 0.0
2017-Apr-22 11:23N 48°31' W 122°36'0 0.0
2017-Apr-22 10:59N 48°31' W 122°36'0 0.0
2017-Apr-22 10:23N 48°31' W 122°36'0 0.0
2017-Apr-22 09:59N 48°31' W 122°36'0 0.0
2017-Apr-22 09:29N 48°31' W 122°36'0 0.0
2017-Apr-22 08:59N 48°31' W 122°36'0 0.0
2017-Apr-22 08:29N 48°31' W 122°36'0 0.0
2017-Apr-22 07:59N 48°31' W 122°36'0 0.0
2017-Apr-22 07:29N 48°31' W 122°36'0 0.0
2017-Apr-22 06:59N 48°31' W 122°36'0 0.0
2017-Apr-22 06:29N 48°31' W 122°36'0 0.0
2017-Apr-22 05:53N 48°31' W 122°36'0 0.0
2017-Apr-22 05:29N 48°31' W 122°36'0 0.0
2017-Apr-22 04:59N 48°31' W 122°36'1 1.5
2017-Apr-22 04:30N 48°31' W 122°35'4 7.9
2017-Apr-22 04:00N 48°28' W 122°31'4 7.5
2017-Apr-22 03:30N 48°25' W 122°30'3 5.8
2017-Apr-22 03:00N 48°22' W 122°32'3 5.3
2017-Apr-22 02:29N 48°19' W 122°31'4 7.3
2017-Apr-22 01:59N 48°16' W 122°32'11 7.6
2017-Apr-22 00:30N 48°05' W 122°26'5 8.2
2017-Apr-21 23:55N 48°02' W 122°21'1 3.1
2017-Apr-21 23:28N 48°01' W 122°19'0 0.3
2017-Apr-21 23:00N 48°01' W 122°19'4 7.8
2017-Apr-21 22:30N 47°59' W 122°14'1 2.5
2017-Apr-21 22:00N 48°00' W 122°13'0 0.0
2017-Apr-21 21:30N 48°00' W 122°13'0 0.7
2017-Apr-21 21:00N 47°60' W 122°13'3 6.4
2017-Apr-21 20:29N 48°00' W 122°18'1 2.0
2017-Apr-21 20:00N 48°01' W 122°19'0 0.0
2017-Apr-21 19:27N 48°01' W 122°19'0 0.0
2017-Apr-21 19:00N 48°01' W 122°19'4 7.1
2017-Apr-21 18:29N 47°59' W 122°15'1 2.6
2017-Apr-21 18:00N 48°00' W 122°13'0 0.0
2017-Apr-21 17:30N 48°00' W 122°13'0 0.0
2017-Apr-21 17:00N 48°00' W 122°13'0 0.2
2017-Apr-21 16:30N 48°00' W 122°13'3 5.0
2017-Apr-21 16:00N 48°00' W 122°17'2 3.3
2017-Apr-21 15:30N 48°01' W 122°19'0 0.0
2017-Apr-21 15:00N 48°01' W 122°19'2 4.5
2017-Apr-21 14:30N 48°00' W 122°16'2 1.9
2017-Apr-21 13:28N 48°00' W 122°13'0 0.0
2017-Apr-21 12:57N 48°00' W 122°13'0 0.0
2017-Apr-21 12:27N 48°00' W 122°13'0 0.0
2017-Apr-21 11:57N 48°00' W 122°13'0 0.0
2017-Apr-21 11:27N 48°00' W 122°13'0 0.0
2017-Apr-21 10:57N 48°00' W 122°13'0 0.0
2017-Apr-21 10:27N 48°00' W 122°13'0 0.0
2017-Apr-21 09:57N 48°00' W 122°13'0 0.0
2017-Apr-21 09:27N 48°00' W 122°13'0 0.0
2017-Apr-21 08:57N 48°00' W 122°13'0 0.0
2017-Apr-21 08:27N 48°00' W 122°13'0 0.0
2017-Apr-21 07:45N 48°00' W 122°13'0 0.0
2017-Apr-21 07:27N 48°00' W 122°13'0 0.0
2017-Apr-21 06:57N 48°00' W 122°13'0 0.0
2017-Apr-21 06:27N 48°00' W 122°13'0 0.0
2017-Apr-21 06:00N 48°00' W 122°13'0 0.0
2017-Apr-21 05:27N 48°00' W 122°13'0 0.0
2017-Apr-21 05:00N 48°00' W 122°13'0 0.0
2017-Apr-21 04:27N 48°00' W 122°13'0 0.0
2017-Apr-21 03:57N 48°00' W 122°13'0 0.0
2017-Apr-21 03:27N 48°00' W 122°13'0 0.0
2017-Apr-21 02:45N 48°00' W 122°13'0 0.0
2017-Apr-21 02:27N 48°00' W 122°13'0 0.0
2017-Apr-21 01:57N 48°00' W 122°13'0 0.0
2017-Apr-21 01:27N 48°00' W 122°13'0 0.3
2017-Apr-21 01:00N 48°00' W 122°13'0 0.1
2017-Apr-21 00:30N 48°00' W 122°13'1 1.5
2017-Apr-21 00:00N 47°60' W 122°14'4 7.5
2017-Apr-20 23:28N 48°01' W 122°19'0 0.3
2017-Apr-20 22:55N 48°01' W 122°19'1 3.0
2017-Apr-20 22:30N 48°01' W 122°18'3 5.7
2017-Apr-20 22:00N 48°00' W 122°13'0 0.1
2017-Apr-20 21:30N 48°00' W 122°13'0 0.0
2017-Apr-20 21:00N 48°00' W 122°13'0 0.8
2017-Apr-20 20:30N 47°60' W 122°13'4 6.4
2017-Apr-20 19:55N 48°01' W 122°19'0 1.0
2017-Apr-20 19:30N 48°01' W 122°19'0 0.0
2017-Apr-20 19:00N 48°01' W 122°19'2 3.9
2017-Apr-20 18:30N 48°00' W 122°17'2 4.5
2017-Apr-20 18:00N 48°00' W 122°13'0 0.1
2017-Apr-20 17:30N 48°00' W 122°13'0 0.0
2017-Apr-20 17:00N 48°00' W 122°13'1 1.2
2017-Apr-20 16:29N 47°60' W 122°14'4 6.9
2017-Apr-20 15:53N 48°01' W 122°19'0 0.2
2017-Apr-20 15:30N 48°01' W 122°19'0 0.0
2017-Apr-20 15:01N 48°01' W 122°19'3 6.5
2017-Apr-20 14:30N 47°59' W 122°15'1 1.3
2017-Apr-20 13:28N 48°00' W 122°13'0 0.0
2017-Apr-20 12:37N 48°00' W 122°13'0 0.0
2017-Apr-20 12:25N 48°00' W 122°13'0 0.0
2017-Apr-20 12:00N 48°00' W 122°13'0 0.0
2017-Apr-20 11:14N 48°00' W 122°13'0 0.0
2017-Apr-20 10:54N 48°00' W 122°13'0 0.0
2017-Apr-20 10:28N 48°00' W 122°13'0 0.0
2017-Apr-20 07:21N 48°00' W 122°13'0 0.0
2017-Apr-20 06:49N 48°00' W 122°13'0 0.0
2017-Apr-20 06:30N 48°00' W 122°13'0 0.0
2017-Apr-20 06:00N 48°00' W 122°13'0 0.0
2017-Apr-20 05:30N 48°00' W 122°13'0 0.0
2017-Apr-20 05:00N 48°00' W 122°13'0 0.0
2017-Apr-20 04:30N 48°00' W 122°13'0 0.0
2017-Apr-20 04:00N 48°00' W 122°13'0 0.0
2017-Apr-20 03:29N 48°00' W 122°13'0 0.0
2017-Apr-20 03:00N 48°00' W 122°13'0 0.0
2017-Apr-20 00:52N 48°00' W 122°13'1 3.6
2017-Apr-20 00:30N 47°59' W 122°15'3 6.5
2017-Apr-20 00:00N 48°01' W 122°19'0 0.0
2017-Apr-19 23:30N 48°01' W 122°19'2 4.2
2017-Apr-19 22:59N 48°00' W 122°17'2 4.4
2017-Apr-19 22:30N 48°00' W 122°13'0 0.0
2017-Apr-19 22:00N 48°00' W 122°13'2 3.6
2017-Apr-19 21:30N 47°60' W 122°16'2 3.2
2017-Apr-19 20:56N 48°00' W 122°18'0 0.1
2017-Apr-19 20:29N 48°00' W 122°18'0 0.2
2017-Apr-19 19:58N 48°01' W 122°18'0 0.0
2017-Apr-19 19:29N 48°01' W 122°18'3 5.4
2017-Apr-19 19:00N 47°59' W 122°15'1 2.7
2017-Apr-19 18:30N 48°00' W 122°13'0 0.0
2017-Apr-19 17:57N 48°00' W 122°13'0 1.0
2017-Apr-19 17:30N 47°60' W 122°13'4 6.6
2017-Apr-19 16:57N 48°01' W 122°19'0 1.0
2017-Apr-19 16:29N 48°01' W 122°19'0 0.0
2017-Apr-19 15:59N 48°01' W 122°19'0 0.0
2017-Apr-19 15:25N 48°01' W 122°19'3 8.4
2017-Apr-19 15:01N 47°59' W 122°15'1 2.4
2017-Apr-19 14:26N 48°00' W 122°13'0 0.0
2017-Apr-19 01:09N 48°00' W 122°13'0 0.0
2017-Apr-19 00:59N 48°00' W 122°13'0 0.3
2017-Apr-19 00:30N 48°00' W 122°13'1 1.4
2017-Apr-18 23:58N 47°60' W 122°13'3 6.9
2017-Apr-18 23:30N 48°01' W 122°18'4 8.5
2017-Apr-18 23:00N 48°03' W 122°23'6 8.4
2017-Apr-18 22:16N 48°07' W 122°30'9 8.4
2017-Apr-18 21:11N 48°16' W 122°31'2 9.2
2017-Apr-18 20:59N 48°18' W 122°30'8 8.1
2017-Apr-18 20:02N 48°25' W 122°36'0 6.8
2017-Apr-18 20:00N 48°25' W 122°36'3 6.1
2017-Apr-18 19:30N 48°26' W 122°41'4 9.2
2017-Apr-18 19:00N 48°30' W 122°44'5 9.5
2017-Apr-18 18:30N 48°33' W 122°50'4 8.9
2017-Apr-18 18:00N 48°35' W 122°55'4 7.8
2017-Apr-18 17:30N 48°37' W 123°00'2 4.2
2017-Apr-18 17:00N 48°36' W 122°58'4 8.5
2017-Apr-18 16:30N 48°34' W 122°52'4 8.0
2017-Apr-18 16:00N 48°32' W 122°47'4 8.5
2017-Apr-18 15:29N 48°32' W 122°40'3 0.2
2017-Apr-17 23:36N 48°31' W 122°36'1 0.9
2017-Apr-17 22:50N 48°31' W 122°36'1 1.2
2017-Apr-17 22:18N 48°31' W 122°36'2 7.9
2017-Apr-17 22:01N 48°32' W 122°40'4 7.9
2017-Apr-17 21:31N 48°33' W 122°45'4 7.6
2017-Apr-17 21:01N 48°36' W 122°49'0 0.0
2017-Apr-17 20:31N 48°36' W 122°49'3 6.6
2017-Apr-17 20:01N 48°33' W 122°50'2 4.5
2017-Apr-17 19:30N 48°31' W 122°50'2 3.6
2017-Apr-17 19:00N 48°33' W 122°50'3 5.8
2017-Apr-17 18:31N 48°35' W 122°49'1 2.0
2017-Apr-17 18:01N 48°36' W 122°48'4 8.1
2017-Apr-17 17:31N 48°33' W 122°44'4 8.7
2017-Apr-17 17:01N 48°31' W 122°38'1 1.3
2017-Apr-17 16:30N 48°31' W 122°37'4 7.2
2017-Apr-17 16:01N 48°33' W 122°41'2 3.7
2017-Apr-17 15:31N 48°32' W 122°39'2 4.2
2017-Apr-17 15:01N 48°31' W 122°36'0 0.0
2017-Apr-17 14:00N 48°31' W 122°36'0 0.0
2017-Apr-17 13:31N 48°31' W 122°36'0 0.0
2017-Apr-17 13:01N 48°31' W 122°36'0 0.0
2017-Apr-17 12:30N 48°31' W 122°36'0 0.0
2017-Apr-17 12:00N 48°31' W 122°36'0 0.0
2017-Apr-17 11:31N 48°31' W 122°36'0 0.0
2017-Apr-17 11:01N 48°31' W 122°36'0 0.0
2017-Apr-17 10:30N 48°31' W 122°36'0 0.0
2017-Apr-17 10:01N 48°31' W 122°36'0 0.0
2017-Apr-17 09:31N 48°31' W 122°36'0 0.0
2017-Apr-17 09:01N 48°31' W 122°36'0 0.0
2017-Apr-17 08:31N 48°31' W 122°36'0 0.0
2017-Apr-17 08:01N 48°31' W 122°36'0 0.0
2017-Apr-17 07:30N 48°31' W 122°36'0 0.0
2017-Apr-17 07:01N 48°31' W 122°36'0 0.0
2017-Apr-17 06:31N 48°31' W 122°36'0 0.0
2017-Apr-17 06:01N 48°31' W 122°36'0 0.0
2017-Apr-17 05:31N 48°31' W 122°36'0 0.0
2017-Apr-17 05:01N 48°31' W 122°36'0 0.0
2017-Apr-17 04:31N 48°31' W 122°36'0 0.0
2017-Apr-17 04:00N 48°31' W 122°36'0 0.0
2017-Apr-17 03:30N 48°31' W 122°36'0 0.0
2017-Apr-17 03:00N 48°31' W 122°36'0 0.0
2017-Apr-17 02:31N 48°31' W 122°36'0 0.0
2017-Apr-17 02:01N 48°31' W 122°36'0 0.0
2017-Apr-17 01:30N 48°31' W 122°36'0 0.0
2017-Apr-17 01:01N 48°31' W 122°36'0 0.0
2017-Apr-17 00:30N 48°31' W 122°36'0 0.0
2017-Apr-17 00:01N 48°31' W 122°36'0 0.0
2017-Apr-16 23:31N 48°31' W 122°36'0 0.0
2017-Apr-16 23:01N 48°31' W 122°36'0 0.0
2017-Apr-16 22:31N 48°31' W 122°36'0 0.0
2017-Apr-16 22:00N 48°31' W 122°36'0 0.0
2017-Apr-16 21:31N 48°31' W 122°36'0 0.0
2017-Apr-16 21:01N 48°31' W 122°36'0 0.0
2017-Apr-16 20:31N 48°31' W 122°36'0 0.0
2017-Apr-16 20:01N 48°31' W 122°36'0 0.0
2017-Apr-16 19:30N 48°31' W 122°36'0 0.0
2017-Apr-16 19:01N 48°31' W 122°36'0 0.0
2017-Apr-16 18:31N 48°31' W 122°36'0 0.0
2017-Apr-16 18:01N 48°31' W 122°36'0 0.0
2017-Apr-16 17:30N 48°31' W 122°36'0 0.0
2017-Apr-16 17:00N 48°31' W 122°36'0 0.0
2017-Apr-16 16:31N 48°31' W 122°36'0 0.0
2017-Apr-16 16:00N 48°31' W 122°36'0 0.0
2017-Apr-16 15:30N 48°31' W 122°36'0 0.0
2017-Apr-16 15:00N 48°31' W 122°36'0 0.0
2017-Apr-16 14:00N 48°31' W 122°36'0 0.0
2017-Apr-16 13:31N 48°31' W 122°36'0 0.0
2017-Apr-16 13:01N 48°31' W 122°36'0 0.0
2017-Apr-16 12:31N 48°31' W 122°36'0 0.0
2017-Apr-16 12:00N 48°31' W 122°36'0 0.0
2017-Apr-16 11:31N 48°31' W 122°36'0 0.0
2017-Apr-16 11:01N 48°31' W 122°36'0 0.0
2017-Apr-16 10:31N 48°31' W 122°36'0 0.0
2017-Apr-16 10:00N 48°31' W 122°36'0 0.0
2017-Apr-16 09:31N 48°31' W 122°36'0 0.0
2017-Apr-16 09:01N 48°31' W 122°36'0 0.0
2017-Apr-16 08:31N 48°31' W 122°36'0 0.0
2017-Apr-16 08:00N 48°31' W 122°36'0 0.0
2017-Apr-16 07:31N 48°31' W 122°36'0 0.0
2017-Apr-16 07:00N 48°31' W 122°36'0 0.0
2017-Apr-16 06:31N 48°31' W 122°36'0 0.0
2017-Apr-16 06:01N 48°31' W 122°36'  
Track history (hours):
 
Tides and Currents Weather Stations Pressure Air Temp Water Temp Dewpoint Dewpoint Depression Visibility Wind Speed Wind Dir Waves Ship Positions

San Juan Enterprise

Owner: SAN JUAN MARINE FREIGHT CO LLC, ANACORTES, WA. More information available from US FCC via Universal Licensing System and Coast Guard Vessel Documentation Center.

Last reported at 2017-Apr-26 05:57 UTC. Time now 2017-Apr-26 06:09 UTC.
Position N 48°31' W 122°36'.

Length 30 m.

MMSI: 367313160.

Date/timePositionNaut miles runAvg speedWind from/ knotsBaromVisibWave heightAir tempDewpointWater temp
2017-Apr-26 05:57N 48°31' W 122°36'0 0.0
2017-Apr-26 05:27N 48°31' W 122°36'0 0.0
2017-Apr-26 04:51N 48°31' W 122°36'0 0.0
2017-Apr-26 04:27N 48°31' W 122°36'0 0.0
2017-Apr-26 03:57N 48°31' W 122°36'0 0.0
2017-Apr-26 03:21N 48°31' W 122°36'0 0.0
2017-Apr-26 02:57N 48°31' W 122°36'0 0.0
2017-Apr-26 02:29N 48°31' W 122°36'0 0.1
2017-Apr-26 02:00N 48°31' W 122°36'1 2.9
2017-Apr-26 01:30N 48°31' W 122°38'4 7.9
2017-Apr-26 01:00N 48°32' W 122°44'4 7.3
2017-Apr-26 00:30N 48°33' W 122°50'4 7.6
2017-Apr-26 00:00N 48°35' W 122°54'4 7.7
2017-Apr-25 23:30N 48°36' W 122°60'1 1.8
2017-Apr-25 23:00N 48°37' W 123°00'4 8.4
2017-Apr-25 22:30N 48°35' W 122°55'5 9.8
2017-Apr-25 22:00N 48°32' W 122°49'510.3
2017-Apr-25 21:30N 48°28' W 122°44'7 2.6
2017-Apr-25 19:01N 48°25' W 122°36'0 7.6
2017-Apr-25 18:58N 48°25' W 122°36'4 7.6
2017-Apr-25 18:30N 48°26' W 122°41'3 6.7
2017-Apr-25 18:01N 48°29' W 122°43'4 8.5
2017-Apr-25 17:30N 48°31' W 122°37'0 0.3
2017-Apr-25 17:01N 48°31' W 122°37'0 0.1
2017-Apr-25 16:30N 48°31' W 122°37'0 0.8
2017-Apr-25 16:00N 48°31' W 122°36'0 0.0
2017-Apr-25 15:30N 48°31' W 122°36'0 0.0
2017-Apr-25 15:00N 48°31' W 122°36'0 0.0
2017-Apr-25 13:54N 48°31' W 122°36'0 0.0
2017-Apr-25 13:24N 48°31' W 122°36'0 0.0
2017-Apr-25 13:00N 48°31' W 122°36'0 0.0
2017-Apr-25 12:30N 48°31' W 122°36'0 0.0
2017-Apr-25 12:00N 48°31' W 122°36'0 0.0
2017-Apr-25 11:30N 48°31' W 122°36'0 0.0
2017-Apr-25 10:54N 48°31' W 122°36'0 0.0
2017-Apr-25 10:12N 48°31' W 122°36'0 0.0
2017-Apr-25 09:54N 48°31' W 122°36'0 0.0
2017-Apr-25 09:30N 48°31' W 122°36'0 0.0
2017-Apr-25 09:00N 48°31' W 122°36'0 0.0
2017-Apr-25 08:30N 48°31' W 122°36'0 0.0
2017-Apr-25 08:00N 48°31' W 122°36'0 0.0
2017-Apr-25 07:30N 48°31' W 122°36'0 0.0
2017-Apr-25 07:00N 48°31' W 122°36'0 0.0
2017-Apr-25 06:24N 48°31' W 122°36'0 0.0
2017-Apr-25 06:00N 48°31' W 122°36'0 0.0
2017-Apr-25 05:24N 48°31' W 122°36'0 0.0
2017-Apr-25 05:00N 48°31' W 122°36'0 0.0
2017-Apr-25 04:30N 48°31' W 122°36'0 0.0
2017-Apr-25 03:54N 48°31' W 122°36'0 0.0
2017-Apr-25 03:30N 48°31' W 122°36'0 0.0
2017-Apr-25 03:00N 48°31' W 122°36'0 0.0
2017-Apr-25 02:30N 48°31' W 122°36'1 1.7
2017-Apr-25 02:00N 48°31' W 122°38'4 7.8
2017-Apr-25 01:30N 48°32' W 122°43'4 7.8
2017-Apr-25 01:01N 48°33' W 122°49'1 1.4
2017-Apr-25 00:31N 48°33' W 122°49'1 1.0
2017-Apr-25 00:01N 48°34' W 122°50'2 3.4
2017-Apr-24 23:31N 48°35' W 122°49'1 2.3
2017-Apr-24 23:01N 48°36' W 122°49'1 2.3
2017-Apr-24 22:31N 48°35' W 122°49'1 2.7
2017-Apr-24 22:00N 48°34' W 122°50'1 2.6
2017-Apr-24 21:30N 48°33' W 122°49'4 8.4
2017-Apr-24 21:00N 48°31' W 122°44'4 7.7
2017-Apr-24 20:31N 48°31' W 122°38'1 2.3
2017-Apr-24 20:00N 48°31' W 122°36'4 7.3
2017-Apr-24 19:30N 48°33' W 122°41'0 0.0
2017-Apr-24 19:00N 48°33' W 122°41'0 0.0
2017-Apr-24 18:30N 48°33' W 122°41'0 0.0
2017-Apr-24 18:00N 48°33' W 122°41'0 0.0
2017-Apr-24 17:30N 48°33' W 122°41'3 6.8
2017-Apr-24 17:00N 48°31' W 122°37'0 0.0
2017-Apr-24 16:30N 48°31' W 122°37'0 0.1
2017-Apr-24 16:01N 48°31' W 122°37'0 0.0
2017-Apr-24 15:30N 48°31' W 122°37'0 0.0
2017-Apr-24 15:01N 48°31' W 122°37'0 0.7
2017-Apr-24 14:30N 48°31' W 122°36'0 0.0
2017-Apr-24 13:29N 48°31' W 122°36'0 0.0
2017-Apr-24 12:59N 48°31' W 122°36'0 0.0
2017-Apr-24 12:29N 48°31' W 122°36'0 0.0
2017-Apr-24 11:53N 48°31' W 122°36'0 0.0
2017-Apr-24 11:23N 48°31' W 122°36'0 0.0
2017-Apr-24 10:59N 48°31' W 122°36'0 0.0
2017-Apr-24 10:29N 48°31' W 122°36'0 0.0
2017-Apr-24 09:35N 48°31' W 122°36'0 0.0
2017-Apr-24 09:29N 48°31' W 122°36'0 0.0
2017-Apr-24 08:59N 48°31' W 122°36'0 0.0
2017-Apr-24 08:29N 48°31' W 122°36'0 0.0
2017-Apr-24 07:59N 48°31' W 122°36'0 0.0
2017-Apr-24 07:29N 48°31' W 122°36'0 0.0
2017-Apr-24 06:59N 48°31' W 122°36'0 0.0
2017-Apr-24 06:29N 48°31' W 122°36'0 0.0
2017-Apr-24 05:47N 48°31' W 122°36'0 0.0
2017-Apr-24 05:23N 48°31' W 122°36'0 0.0
2017-Apr-24 04:59N 48°31' W 122°36'0 0.0
2017-Apr-24 04:29N 48°31' W 122°36'0 0.0
2017-Apr-24 03:53N 48°31' W 122°36'0 0.0
2017-Apr-24 03:29N 48°31' W 122°36'0 0.0
2017-Apr-24 02:53N 48°31' W 122°36'0 0.0
2017-Apr-24 02:23N 48°31' W 122°36'0 0.0
2017-Apr-24 01:59N 48°31' W 122°36'0 0.0
2017-Apr-24 01:29N 48°31' W 122°36'0 0.0
2017-Apr-24 00:59N 48°31' W 122°36'0 0.0
2017-Apr-24 00:29N 48°31' W 122°36'0 0.0
2017-Apr-23 23:59N 48°31' W 122°36'0 0.0
2017-Apr-23 23:29N 48°31' W 122°36'0 0.0
2017-Apr-23 22:53N 48°31' W 122°36'0 0.0
2017-Apr-23 22:29N 48°31' W 122°36'0 0.0
2017-Apr-23 21:59N 48°31' W 122°36'0 0.0
2017-Apr-23 21:23N 48°31' W 122°36'0 0.0
2017-Apr-23 20:59N 48°31' W 122°36'0 0.0
2017-Apr-23 20:29N 48°31' W 122°36'0 0.0
2017-Apr-23 19:59N 48°31' W 122°36'0 0.0
2017-Apr-23 19:29N 48°31' W 122°36'0 0.0
2017-Apr-23 18:59N 48°31' W 122°36'0 0.0
2017-Apr-23 18:29N 48°31' W 122°36'0 0.0
2017-Apr-23 17:53N 48°31' W 122°36'0 0.0
2017-Apr-23 17:23N 48°31' W 122°36'0 0.0
2017-Apr-23 16:59N 48°31' W 122°36'0 0.0
2017-Apr-23 16:29N 48°31' W 122°36'0 0.0
2017-Apr-23 15:59N 48°31' W 122°36'0 0.0
2017-Apr-23 15:29N 48°31' W 122°36'0 0.0
2017-Apr-23 14:59N 48°31' W 122°36'0 0.0
2017-Apr-23 14:29N 48°31' W 122°36'0 0.0
2017-Apr-23 13:29N 48°31' W 122°36'0 0.0
2017-Apr-23 12:59N 48°31' W 122°36'0 0.0
2017-Apr-23 12:29N 48°31' W 122°36'0 0.0
2017-Apr-23 11:59N 48°31' W 122°36'0 0.0
2017-Apr-23 11:23N 48°31' W 122°36'0 0.0
2017-Apr-23 10:59N 48°31' W 122°36'0 0.0
2017-Apr-23 10:05N 48°31' W 122°36'0 0.0
2017-Apr-23 09:53N 48°31' W 122°36'0 0.0
2017-Apr-23 09:29N 48°31' W 122°36'0 0.0
2017-Apr-23 08:59N 48°31' W 122°36'0 0.0
2017-Apr-23 08:23N 48°31' W 122°36'0 0.0
2017-Apr-23 07:59N 48°31' W 122°36'0 0.0
2017-Apr-23 07:29N 48°31' W 122°36'0 0.0
2017-Apr-23 06:59N 48°31' W 122°36'0 0.0
2017-Apr-23 06:29N 48°31' W 122°36'0 0.0
2017-Apr-23 05:47N 48°31' W 122°36'0 0.0
2017-Apr-23 05:29N 48°31' W 122°36'0 0.0
2017-Apr-23 04:53N 48°31' W 122°36'0 0.0
2017-Apr-23 04:29N 48°31' W 122°36'0 0.0
2017-Apr-23 03:59N 48°31' W 122°36'0 0.0
2017-Apr-23 03:29N 48°31' W 122°36'0 0.0
2017-Apr-23 02:59N 48°31' W 122°36'0 0.0
2017-Apr-23 02:23N 48°31' W 122°36'0 0.0
2017-Apr-23 01:59N 48°31' W 122°36'0 0.0
2017-Apr-23 01:23N 48°31' W 122°36'0 0.0
2017-Apr-23 00:59N 48°31' W 122°36'0 0.0
2017-Apr-23 00:29N 48°31' W 122°36'0 0.0
2017-Apr-22 23:59N 48°31' W 122°36'0 0.0
2017-Apr-22 23:29N 48°31' W 122°36'0 0.0
2017-Apr-22 22:59N 48°31' W 122°36'0 0.0
2017-Apr-22 22:29N 48°31' W 122°36'0 0.0
2017-Apr-22 21:59N 48°31' W 122°36'0 0.0
2017-Apr-22 21:29N 48°31' W 122°36'0 0.0
2017-Apr-22 20:59N 48°31' W 122°36'0 0.0
2017-Apr-22 20:29N 48°31' W 122°36'0 0.0
2017-Apr-22 19:59N 48°31' W 122°36'0 0.0
2017-Apr-22 19:29N 48°31' W 122°36'0 0.0
2017-Apr-22 18:59N 48°31' W 122°36'0 0.0
2017-Apr-22 18:29N 48°31' W 122°36'0 0.0
2017-Apr-22 17:59N 48°31' W 122°36'0 0.0
2017-Apr-22 17:29N 48°31' W 122°36'0 0.0
2017-Apr-22 16:59N 48°31' W 122°36'0 0.0
2017-Apr-22 16:29N 48°31' W 122°36'0 0.0
2017-Apr-22 15:59N 48°31' W 122°36'0 0.0
2017-Apr-22 15:29N 48°31' W 122°36'0 0.0
2017-Apr-22 14:53N 48°31' W 122°36'0 0.0
2017-Apr-22 14:29N 48°31' W 122°36'0 0.0
2017-Apr-22 13:29N 48°31' W 122°36'0 0.0
2017-Apr-22 12:59N 48°31' W 122°36'0 0.0
2017-Apr-22 12:29N 48°31' W 122°36'0 0.0
2017-Apr-22 11:59N 48°31' W 122°36'0 0.0
2017-Apr-22 11:23N 48°31' W 122°36'0 0.0
2017-Apr-22 10:59N 48°31' W 122°36'0 0.0
2017-Apr-22 10:23N 48°31' W 122°36'0 0.0
2017-Apr-22 09:59N 48°31' W 122°36'0 0.0
2017-Apr-22 09:29N 48°31' W 122°36'0 0.0
2017-Apr-22 08:59N 48°31' W 122°36'0 0.0
2017-Apr-22 08:29N 48°31' W 122°36'0 0.0
2017-Apr-22 07:59N 48°31' W 122°36'0 0.0
2017-Apr-22 07:29N 48°31' W 122°36'0 0.0
2017-Apr-22 06:59N 48°31' W 122°36'0 0.0
2017-Apr-22 06:29N 48°31' W 122°36'0 0.0
2017-Apr-22 05:53N 48°31' W 122°36'0 0.0
2017-Apr-22 05:29N 48°31' W 122°36'0 0.0
2017-Apr-22 04:59N 48°31' W 122°36'1 1.5
2017-Apr-22 04:30N 48°31' W 122°35'4 7.9
2017-Apr-22 04:00N 48°28' W 122°31'4 7.5
2017-Apr-22 03:30N 48°25' W 122°30'3 5.8
2017-Apr-22 03:00N 48°22' W 122°32'3 5.3
2017-Apr-22 02:29N 48°19' W 122°31'4 7.3
2017-Apr-22 01:59N 48°16' W 122°32'11 7.6
2017-Apr-22 00:30N 48°05' W 122°26'5 8.2
2017-Apr-21 23:55N 48°02' W 122°21'1 3.1
2017-Apr-21 23:28N 48°01' W 122°19'0 0.3
2017-Apr-21 23:00N 48°01' W 122°19'4 7.8
2017-Apr-21 22:30N 47°59' W 122°14'1 2.5
2017-Apr-21 22:00N 48°00' W 122°13'0 0.0
2017-Apr-21 21:30N 48°00' W 122°13'0 0.7
2017-Apr-21 21:00N 47°60' W 122°13'3 6.4
2017-Apr-21 20:29N 48°00' W 122°18'1 2.0
2017-Apr-21 20:00N 48°01' W 122°19'0 0.0
2017-Apr-21 19:27N 48°01' W 122°19'0 0.0
2017-Apr-21 19:00N 48°01' W 122°19'4 7.1
2017-Apr-21 18:29N 47°59' W 122°15'1 2.6
2017-Apr-21 18:00N 48°00' W 122°13'0 0.0
2017-Apr-21 17:30N 48°00' W 122°13'0 0.0
2017-Apr-21 17:00N 48°00' W 122°13'0 0.2
2017-Apr-21 16:30N 48°00' W 122°13'3 5.0
2017-Apr-21 16:00N 48°00' W 122°17'2 3.3
2017-Apr-21 15:30N 48°01' W 122°19'0 0.0
2017-Apr-21 15:00N 48°01' W 122°19'2 4.5
2017-Apr-21 14:30N 48°00' W 122°16'2 1.9
2017-Apr-21 13:28N 48°00' W 122°13'0 0.0
2017-Apr-21 12:57N 48°00' W 122°13'0 0.0
2017-Apr-21 12:27N 48°00' W 122°13'0 0.0
2017-Apr-21 11:57N 48°00' W 122°13'0 0.0
2017-Apr-21 11:27N 48°00' W 122°13'0 0.0
2017-Apr-21 10:57N 48°00' W 122°13'0 0.0
2017-Apr-21 10:27N 48°00' W 122°13'0 0.0
2017-Apr-21 09:57N 48°00' W 122°13'0 0.0
2017-Apr-21 09:27N 48°00' W 122°13'0 0.0
2017-Apr-21 08:57N 48°00' W 122°13'0 0.0
2017-Apr-21 08:27N 48°00' W 122°13'0 0.0
2017-Apr-21 07:45N 48°00' W 122°13'0 0.0
2017-Apr-21 07:27N 48°00' W 122°13'0 0.0
2017-Apr-21 06:57N 48°00' W 122°13'0 0.0
2017-Apr-21 06:27N 48°00' W 122°13'0 0.0
2017-Apr-21 06:00N 48°00' W 122°13'0 0.0
2017-Apr-21 05:27N 48°00' W 122°13'0 0.0
2017-Apr-21 05:00N 48°00' W 122°13'0 0.0
2017-Apr-21 04:27N 48°00' W 122°13'0 0.0
2017-Apr-21 03:57N 48°00' W 122°13'0 0.0
2017-Apr-21 03:27N 48°00' W 122°13'0 0.0
2017-Apr-21 02:45N 48°00' W 122°13'0 0.0
2017-Apr-21 02:27N 48°00' W 122°13'0 0.0
2017-Apr-21 01:57N 48°00' W 122°13'0 0.0
2017-Apr-21 01:27N 48°00' W 122°13'0 0.3
2017-Apr-21 01:00N 48°00' W 122°13'0 0.1
2017-Apr-21 00:30N 48°00' W 122°13'1 1.5
2017-Apr-21 00:00N 47°60' W 122°14'4 7.5
2017-Apr-20 23:28N 48°01' W 122°19'0 0.3
2017-Apr-20 22:55N 48°01' W 122°19'1 3.0
2017-Apr-20 22:30N 48°01' W 122°18'3 5.7
2017-Apr-20 22:00N 48°00' W 122°13'0 0.1
2017-Apr-20 21:30N 48°00' W 122°13'0 0.0
2017-Apr-20 21:00N 48°00' W 122°13'0 0.8
2017-Apr-20 20:30N 47°60' W 122°13'4 6.4
2017-Apr-20 19:55N 48°01' W 122°19'0 1.0
2017-Apr-20 19:30N 48°01' W 122°19'0 0.0
2017-Apr-20 19:00N 48°01' W 122°19'2 3.9
2017-Apr-20 18:30N 48°00' W 122°17'2 4.5
2017-Apr-20 18:00N 48°00' W 122°13'0 0.1
2017-Apr-20 17:30N 48°00' W 122°13'0 0.0
2017-Apr-20 17:00N 48°00' W 122°13'1 1.2
2017-Apr-20 16:29N 47°60' W 122°14'4 6.9
2017-Apr-20 15:53N 48°01' W 122°19'0 0.2
2017-Apr-20 15:30N 48°01' W 122°19'0 0.0
2017-Apr-20 15:01N 48°01' W 122°19'3 6.5
2017-Apr-20 14:30N 47°59' W 122°15'1 1.3
2017-Apr-20 13:28N 48°00' W 122°13'0 0.0
2017-Apr-20 12:37N 48°00' W 122°13'0 0.0
2017-Apr-20 12:25N 48°00' W 122°13'0 0.0
2017-Apr-20 12:00N 48°00' W 122°13'0 0.0
2017-Apr-20 11:14N 48°00' W 122°13'0 0.0
2017-Apr-20 10:54N 48°00' W 122°13'0 0.0
2017-Apr-20 10:28N 48°00' W 122°13'0 0.0
2017-Apr-20 07:21N 48°00' W 122°13'0 0.0
2017-Apr-20 06:49N 48°00' W 122°13'0 0.0
2017-Apr-20 06:30N 48°00' W 122°13'0 0.0
2017-Apr-20 06:00N 48°00' W 122°13'0 0.0
2017-Apr-20 05:30N 48°00' W 122°13'0 0.0
2017-Apr-20 05:00N 48°00' W 122°13'0 0.0
2017-Apr-20 04:30N 48°00' W 122°13'0 0.0
2017-Apr-20 04:00N 48°00' W 122°13'0 0.0
2017-Apr-20 03:29N 48°00' W 122°13'0 0.0
2017-Apr-20 03:00N 48°00' W 122°13'0 0.0
2017-Apr-20 00:52N 48°00' W 122°13'1 3.6
2017-Apr-20 00:30N 47°59' W 122°15'3 6.5
2017-Apr-20 00:00N 48°01' W 122°19'0 0.0
2017-Apr-19 23:30N 48°01' W 122°19'2 4.2
2017-Apr-19 22:59N 48°00' W 122°17'2 4.4
2017-Apr-19 22:30N 48°00' W 122°13'0 0.0
2017-Apr-19 22:00N 48°00' W 122°13'2 3.6
2017-Apr-19 21:30N 47°60' W 122°16'2 3.2
2017-Apr-19 20:56N 48°00' W 122°18'0 0.1
2017-Apr-19 20:29N 48°00' W 122°18'0 0.2
2017-Apr-19 19:58N 48°01' W 122°18'0 0.0
2017-Apr-19 19:29N 48°01' W 122°18'3 5.4
2017-Apr-19 19:00N 47°59' W 122°15'1 2.7
2017-Apr-19 18:30N 48°00' W 122°13'0 0.0
2017-Apr-19 17:57N 48°00' W 122°13'0 1.0
2017-Apr-19 17:30N 47°60' W 122°13'4 6.6
2017-Apr-19 16:57N 48°01' W 122°19'0 1.0
2017-Apr-19 16:29N 48°01' W 122°19'0 0.0
2017-Apr-19 15:59N 48°01' W 122°19'0 0.0
2017-Apr-19 15:25N 48°01' W 122°19'3 8.4
2017-Apr-19 15:01N 47°59' W 122°15'1 2.4
2017-Apr-19 14:26N 48°00' W 122°13'0 0.0
2017-Apr-19 01:09N 48°00' W 122°13'0 0.0
2017-Apr-19 00:59N 48°00' W 122°13'0 0.3
2017-Apr-19 00:30N 48°00' W 122°13'1 1.4
2017-Apr-18 23:58N 47°60' W 122°13'3 6.9
2017-Apr-18 23:30N 48°01' W 122°18'4 8.5
2017-Apr-18 23:00N 48°03' W 122°23'6 8.4
2017-Apr-18 22:16N 48°07' W 122°30'9 8.4
2017-Apr-18 21:11N 48°16' W 122°31'2 9.2
2017-Apr-18 20:59N 48°18' W 122°30'8 8.1
2017-Apr-18 20:02N 48°25' W 122°36'0 6.8
2017-Apr-18 20:00N 48°25' W 122°36'3 6.1
2017-Apr-18 19:30N 48°26' W 122°41'4 9.2
2017-Apr-18 19:00N 48°30' W 122°44'5 9.5
2017-Apr-18 18:30N 48°33' W 122°50'4 8.9
2017-Apr-18 18:00N 48°35' W 122°55'4 7.8
2017-Apr-18 17:30N 48°37' W 123°00'2 4.2
2017-Apr-18 17:00N 48°36' W 122°58'4 8.5
2017-Apr-18 16:30N 48°34' W 122°52'4 8.0
2017-Apr-18 16:00N 48°32' W 122°47'4 8.5
2017-Apr-18 15:29N 48°32' W 122°40'3 0.2
2017-Apr-17 23:36N 48°31' W 122°36'1 0.9
2017-Apr-17 22:50N 48°31' W 122°36'1 1.2
2017-Apr-17 22:18N 48°31' W 122°36'2 7.9
2017-Apr-17 22:01N 48°32' W 122°40'4 7.9
2017-Apr-17 21:31N 48°33' W 122°45'4 7.6
2017-Apr-17 21:01N 48°36' W 122°49'0 0.0
2017-Apr-17 20:31N 48°36' W 122°49'3 6.6
2017-Apr-17 20:01N 48°33' W 122°50'2 4.5
2017-Apr-17 19:30N 48°31' W 122°50'2 3.6
2017-Apr-17 19:00N 48°33' W 122°50'3 5.8
2017-Apr-17 18:31N 48°35' W 122°49'1 2.0
2017-Apr-17 18:01N 48°36' W 122°48'4 8.1
2017-Apr-17 17:31N 48°33' W 122°44'4 8.7
2017-Apr-17 17:01N 48°31' W 122°38'1 1.3
2017-Apr-17 16:30N 48°31' W 122°37'4 7.2
2017-Apr-17 16:01N 48°33' W 122°41'2 3.7
2017-Apr-17 15:31N 48°32' W 122°39'2 4.2
2017-Apr-17 15:01N 48°31' W 122°36'0 0.0
2017-Apr-17 14:00N 48°31' W 122°36'0 0.0
2017-Apr-17 13:31N 48°31' W 122°36'0 0.0
2017-Apr-17 13:01N 48°31' W 122°36'0 0.0
2017-Apr-17 12:30N 48°31' W 122°36'0 0.0
2017-Apr-17 12:00N 48°31' W 122°36'0 0.0
2017-Apr-17 11:31N 48°31' W 122°36'0 0.0
2017-Apr-17 11:01N 48°31' W 122°36'0 0.0
2017-Apr-17 10:30N 48°31' W 122°36'0 0.0
2017-Apr-17 10:01N 48°31' W 122°36'0 0.0
2017-Apr-17 09:31N 48°31' W 122°36'0 0.0
2017-Apr-17 09:01N 48°31' W 122°36'0 0.0
2017-Apr-17 08:31N 48°31' W 122°36'0 0.0
2017-Apr-17 08:01N 48°31' W 122°36'0 0.0
2017-Apr-17 07:30N 48°31' W 122°36'0 0.0
2017-Apr-17 07:01N 48°31' W 122°36'0 0.0
2017-Apr-17 06:31N 48°31' W 122°36'0 0.0
2017-Apr-17 06:01N 48°31' W 122°36'0 0.0
2017-Apr-17 05:31N 48°31' W 122°36'0 0.0
2017-Apr-17 05:01N 48°31' W 122°36'0 0.0
2017-Apr-17 04:31N 48°31' W 122°36'0 0.0
2017-Apr-17 04:00N 48°31' W 122°36'0 0.0
2017-Apr-17 03:30N 48°31' W 122°36'0 0.0
2017-Apr-17 03:00N 48°31' W 122°36'0 0.0
2017-Apr-17 02:31N 48°31' W 122°36'0 0.0
2017-Apr-17 02:01N 48°31' W 122°36'0 0.0
2017-Apr-17 01:30N 48°31' W 122°36'0 0.0
2017-Apr-17 01:01N 48°31' W 122°36'0 0.0
2017-Apr-17 00:30N 48°31' W 122°36'0 0.0
2017-Apr-17 00:01N 48°31' W 122°36'0 0.0
2017-Apr-16 23:31N 48°31' W 122°36'0 0.0
2017-Apr-16 23:01N 48°31' W 122°36'0 0.0
2017-Apr-16 22:31N 48°31' W 122°36'0 0.0
2017-Apr-16 22:00N 48°31' W 122°36'0 0.0
2017-Apr-16 21:31N 48°31' W 122°36'0 0.0
2017-Apr-16 21:01N 48°31' W 122°36'0 0.0
2017-Apr-16 20:31N 48°31' W 122°36'0 0.0
2017-Apr-16 20:01N 48°31' W 122°36'0 0.0
2017-Apr-16 19:30N 48°31' W 122°36'0 0.0
2017-Apr-16 19:01N 48°31' W 122°36'0 0.0
2017-Apr-16 18:31N 48°31' W 122°36'0 0.0
2017-Apr-16 18:01N 48°31' W 122°36'0 0.0
2017-Apr-16 17:30N 48°31' W 122°36'0 0.0
2017-Apr-16 17:00N 48°31' W 122°36'0 0.0
2017-Apr-16 16:31N 48°31' W 122°36'0 0.0
2017-Apr-16 16:00N 48°31' W 122°36'0 0.0
2017-Apr-16 15:30N 48°31' W 122°36'0 0.0
2017-Apr-16 15:00N 48°31' W 122°36'0 0.0
2017-Apr-16 14:00N 48°31' W 122°36'0 0.0
2017-Apr-16 13:31N 48°31' W 122°36'0 0.0
2017-Apr-16 13:01N 48°31' W 122°36'0 0.0
2017-Apr-16 12:31N 48°31' W 122°36'0 0.0
2017-Apr-16 12:00N 48°31' W 122°36'0 0.0
2017-Apr-16 11:31N 48°31' W 122°36'0 0.0
2017-Apr-16 11:01N 48°31' W 122°36'0 0.0
2017-Apr-16 10:31N 48°31' W 122°36'0 0.0
2017-Apr-16 10:00N 48°31' W 122°36'0 0.0
2017-Apr-16 09:31N 48°31' W 122°36'0 0.0
2017-Apr-16 09:01N 48°31' W 122°36'0 0.0
2017-Apr-16 08:31N 48°31' W 122°36'0 0.0
2017-Apr-16 08:00N 48°31' W 122°36'0 0.0
2017-Apr-16 07:31N 48°31' W 122°36'0 0.0
2017-Apr-16 07:00N 48°31' W 122°36'0 0.0
2017-Apr-16 06:31N 48°31' W 122°36'0 0.0
2017-Apr-16 06:01N 48°31' W 122°36'  

Dump ship's entire track history